createdAt,value
2018-05-04T00:01:30.509Z,101614.91
2018-05-04T00:03:56.594Z,101622.25
2018-05-04T00:06:22.398Z,101623.19
2018-05-04T00:08:48.227Z,101632.81
2018-05-04T00:11:14.006Z,101629.13
2018-05-04T00:13:39.789Z,101639.62
2018-05-04T00:16:05.889Z,101646.52
2018-05-04T00:18:31.695Z,101645.77
2018-05-04T00:20:57.469Z,101640.61
2018-05-04T00:23:23.258Z,101638.25
2018-05-04T00:25:49.106Z,101643.07
2018-05-04T00:28:14.941Z,101641.05
2018-05-04T00:30:40.718Z,101641.02
2018-05-04T00:33:06.515Z,101647.69
2018-05-04T00:35:32.334Z,101654.94
2018-05-04T00:37:58.115Z,101651.31
2018-05-04T00:40:23.905Z,101648.00
2018-05-04T00:42:49.711Z,101646.34
2018-05-04T00:45:15.505Z,101641.89
2018-05-04T00:47:41.281Z,101642.53
2018-05-04T00:50:07.097Z,101646.58
2018-05-04T00:52:32.886Z,101636.94
2018-05-04T00:54:58.683Z,101635.77
2018-05-04T00:57:24.499Z,101639.71
2018-05-04T00:59:50.298Z,101643.02
2018-05-04T01:02:16.096Z,101645.62
2018-05-04T01:04:41.928Z,101646.02
2018-05-04T01:07:07.724Z,101642.47
2018-05-04T01:09:33.576Z,101647.52
2018-05-04T01:11:59.463Z,101644.12
2018-05-04T01:14:25.247Z,101645.45
2018-05-04T01:16:54.918Z,101653.37
2018-05-04T01:19:20.762Z,101652.79
2018-05-04T01:21:46.561Z,101655.56
2018-05-04T01:24:12.376Z,101659.58
2018-05-04T01:26:38.189Z,101659.35
2018-05-04T01:29:03.989Z,101662.36
2018-05-04T01:31:29.777Z,101664.63
2018-05-04T01:33:55.576Z,101666.07
2018-05-04T01:36:21.379Z,101664.41
2018-05-04T01:38:47.173Z,101667.48
2018-05-04T01:41:12.971Z,101671.20
2018-05-04T01:43:38.762Z,101670.34
2018-05-04T01:46:04.561Z,101673.36
2018-05-04T01:48:30.391Z,101677.80
2018-05-04T01:50:56.171Z,101680.25
2018-05-04T01:53:21.974Z,101687.57
2018-05-04T01:55:47.815Z,101683.10
2018-05-04T01:58:13.601Z,101694.27
2018-05-04T02:00:39.390Z,101683.02
2018-05-04T02:03:05.189Z,101688.16
2018-05-04T02:05:30.987Z,101692.56
2018-05-04T02:07:56.804Z,101688.18
2018-05-04T02:10:22.618Z,101689.33
2018-05-04T02:12:48.414Z,101688.00
2018-05-04T02:15:14.222Z,101687.14
2018-05-04T02:17:40.046Z,101689.10
2018-05-04T02:20:05.838Z,101691.45
2018-05-04T02:22:31.630Z,101697.47
2018-05-04T02:24:57.488Z,101706.72
2018-05-04T02:29:55.850Z,101714.23
2018-05-04T02:32:21.646Z,101711.02
2018-05-04T02:34:47.449Z,101707.41
2018-05-04T02:37:13.241Z,101713.77
2018-05-04T02:39:39.063Z,101704.72
2018-05-04T02:42:04.871Z,101711.47
2018-05-04T02:44:30.661Z,101709.83
2018-05-04T02:46:56.461Z,101710.41
2018-05-04T02:49:22.293Z,101710.64
2018-05-04T02:51:48.091Z,101705.91
2018-05-04T02:54:13.882Z,101709.56
2018-05-04T02:56:39.690Z,101704.23
2018-05-04T02:59:05.519Z,101703.75
2018-05-04T03:01:31.313Z,101700.45
2018-05-04T03:03:57.120Z,101701.61
2018-05-04T03:06:22.905Z,101706.96
2018-05-04T03:08:48.802Z,101709.47
2018-05-04T03:11:14.597Z,101709.31
2018-05-04T03:13:40.373Z,101704.73
2018-05-04T03:16:06.187Z,101703.70
2018-05-04T03:18:31.990Z,101702.51
2018-05-04T03:20:57.818Z,101709.91
2018-05-04T03:23:23.649Z,101716.00
2018-05-04T03:25:49.437Z,101718.86
2018-05-04T03:28:15.234Z,101721.41
2018-05-04T03:30:41.032Z,101719.64
2018-05-04T03:33:06.940Z,101716.47
2018-05-04T03:35:32.743Z,101716.95
2018-05-04T03:37:58.549Z,101717.72
2018-05-04T03:40:24.352Z,101719.33
2018-05-04T03:42:50.168Z,101719.76
2018-05-04T03:45:15.949Z,101717.09
2018-05-04T03:47:42.562Z,101723.10
2018-05-04T03:50:08.350Z,101720.91
2018-05-04T03:52:34.506Z,101731.97
2018-05-04T03:55:00.301Z,101732.92
2018-05-04T03:57:38.605Z,101735.16
2018-05-04T04:00:16.705Z,101734.68
2018-05-04T04:02:55.321Z,101727.34
2018-05-04T04:05:21.323Z,101727.56
2018-05-04T04:07:47.121Z,101729.60
2018-05-04T04:10:12.954Z,101733.44
2018-05-04T04:12:38.746Z,101740.27
2018-05-04T04:15:04.785Z,101739.20
2018-05-04T04:17:30.605Z,101739.25
2018-05-04T04:19:56.391Z,101744.87
2018-05-04T04:22:22.191Z,101743.19
2018-05-04T04:24:47.993Z,101751.87
2018-05-04T04:27:14.017Z,101748.70
2018-05-04T04:29:39.801Z,101743.30
2018-05-04T04:32:05.591Z,101747.05
2018-05-04T04:34:31.398Z,101748.73
2018-05-04T04:36:57.205Z,101755.45
2018-05-04T04:39:22.995Z,101750.50
2018-05-04T04:41:48.812Z,101757.06
2018-05-04T04:44:14.601Z,101756.47
2018-05-04T04:46:40.405Z,101759.34
2018-05-04T04:49:06.194Z,101760.33
2018-05-04T04:51:32.002Z,101759.24
2018-05-04T04:53:57.771Z,101758.20
2018-05-04T04:56:23.557Z,101765.09
2018-05-04T04:58:49.348Z,101765.46
2018-05-04T05:01:15.494Z,101770.03
2018-05-04T05:03:41.326Z,101766.80
2018-05-04T05:06:07.121Z,101771.88
2018-05-04T05:08:33.237Z,101778.09
2018-05-04T05:10:59.031Z,101780.09
2018-05-04T05:13:24.884Z,101790.23
2018-05-04T05:15:50.613Z,101785.27
2018-05-04T05:18:16.435Z,101790.50
2018-05-04T05:20:42.232Z,101795.30
2018-05-04T05:23:08.005Z,101792.26
2018-05-04T05:25:33.864Z,101786.03
2018-05-04T05:27:59.668Z,101794.27
2018-05-04T05:30:25.456Z,101797.58
2018-05-04T05:32:51.282Z,101796.44
2018-05-04T05:35:17.084Z,101800.17
2018-05-04T05:37:42.873Z,101805.12
2018-05-04T05:40:08.681Z,101802.42
2018-05-04T05:42:34.453Z,101799.92
2018-05-04T05:45:00.232Z,101800.66
2018-05-04T05:47:26.158Z,101806.23
2018-05-04T05:49:51.957Z,101807.36
2018-05-04T05:52:17.765Z,101814.31
2018-05-04T05:54:44.021Z,101793.78
2018-05-04T05:57:09.774Z,101811.36
2018-05-04T05:59:35.594Z,101800.23
2018-05-04T06:02:01.439Z,101797.64
2018-05-04T06:04:34.223Z,101803.92
2018-05-04T06:07:00.027Z,101804.47
2018-05-04T06:09:25.955Z,101795.36
2018-05-04T06:11:51.644Z,101807.90
2018-05-04T06:14:17.454Z,101802.34
2018-05-04T06:16:43.273Z,101798.02
2018-05-04T06:19:09.046Z,101797.36
2018-05-04T06:21:34.846Z,101792.17
2018-05-04T06:24:01.070Z,101796.61
2018-05-04T06:26:26.863Z,101786.22
2018-05-04T06:28:52.645Z,101784.89
2018-05-04T06:31:18.670Z,101794.31
2018-05-04T06:33:44.561Z,101789.07
2018-05-04T06:36:10.290Z,101783.13
2018-05-04T06:38:36.108Z,101781.79
2018-05-04T06:41:01.941Z,101782.69
2018-05-04T06:43:27.717Z,101782.84
2018-05-04T06:45:53.597Z,101790.67
2018-05-04T06:48:19.303Z,101795.38
2018-05-04T06:50:45.385Z,101795.58
2018-05-04T06:53:11.199Z,101793.48
2018-05-04T06:55:36.953Z,101796.80
2018-05-04T06:58:02.777Z,101799.63
2018-05-04T07:00:28.565Z,101796.09
2018-05-04T07:02:54.370Z,101798.38
2018-05-04T07:05:20.188Z,101795.61
2018-05-04T07:07:45.976Z,101791.55
2018-05-04T07:10:11.786Z,101795.91
2018-05-04T07:12:37.917Z,101788.41
2018-05-04T07:15:03.716Z,101792.29
2018-05-04T07:17:29.508Z,101798.52
2018-05-04T07:19:55.509Z,101797.59
2018-05-04T07:22:21.294Z,101805.00
2018-05-04T07:24:47.090Z,101810.73
2018-05-04T07:27:12.897Z,101811.53
2018-05-04T07:29:38.673Z,101813.41
2018-05-04T07:32:04.465Z,101814.55
2018-05-04T07:34:30.258Z,101813.41
2018-05-04T07:36:56.112Z,101814.86
2018-05-04T07:39:21.900Z,101816.27
2018-05-04T07:41:47.684Z,101820.19
2018-05-04T07:44:13.495Z,101813.52
2018-05-04T07:46:39.273Z,101809.06
2018-05-04T07:49:05.076Z,101810.55
2018-05-04T07:51:30.879Z,101808.45
2018-05-04T07:53:56.686Z,101814.55
2018-05-04T07:56:34.795Z,101805.31
2018-05-04T07:59:00.605Z,101807.96
2018-05-04T08:01:26.412Z,101800.84
2018-05-04T08:03:52.206Z,101804.59
2018-05-04T08:06:17.985Z,101807.42
2018-05-04T08:08:43.810Z,101813.83
2018-05-04T08:11:09.602Z,101817.30
2018-05-04T08:13:35.505Z,101814.52
2018-05-04T08:16:01.854Z,101817.67
2018-05-04T08:18:27.712Z,101823.13
2018-05-04T08:20:53.498Z,101822.77
2018-05-04T08:23:19.664Z,101825.39
2018-05-04T08:25:45.472Z,101826.23
2018-05-04T08:28:11.275Z,101828.83
2018-05-04T08:30:37.274Z,101830.08
2018-05-04T08:33:03.090Z,101828.66
2018-05-04T08:35:28.894Z,101829.67
2018-05-04T08:37:54.677Z,101829.73
2018-05-04T08:40:20.829Z,101839.91
2018-05-04T08:42:46.646Z,101835.27
2018-05-04T08:45:12.448Z,101834.59
2018-05-04T08:47:45.274Z,101839.54
2018-05-04T08:50:11.110Z,101840.50
2018-05-04T08:52:36.902Z,101841.02
2018-05-04T08:55:02.801Z,101836.80
2018-05-04T08:57:28.669Z,101835.80
2018-05-04T08:59:54.411Z,101839.63
2018-05-04T09:02:20.350Z,101836.29
2018-05-04T09:04:46.146Z,101834.61
2018-05-04T09:07:11.930Z,101838.22
2018-05-04T09:09:37.725Z,101843.63
2018-05-04T09:12:03.545Z,101846.50
2018-05-04T09:14:29.340Z,101853.44
2018-05-04T09:16:55.126Z,101846.48
2018-05-04T09:19:20.914Z,101845.23
2018-05-04T09:21:46.705Z,101849.15
2018-05-04T09:24:12.546Z,101851.02
2018-05-04T09:26:38.633Z,101847.36
2018-05-04T09:29:04.428Z,101840.97
2018-05-04T09:31:30.223Z,101841.83
2018-05-04T09:33:56.030Z,101842.00
2018-05-04T09:36:21.800Z,101849.77
2018-05-04T09:38:47.593Z,101855.75
2018-05-04T09:41:13.382Z,101852.38
2018-05-04T09:43:39.164Z,101852.59
2018-05-04T09:46:04.958Z,101856.50
2018-05-04T09:48:30.801Z,101856.38
2018-05-04T09:50:56.732Z,101862.59
2018-05-04T09:53:22.516Z,101860.47
2018-05-04T09:55:48.311Z,101855.92
2018-05-04T09:58:14.109Z,101858.64
2018-05-04T10:00:39.888Z,101857.05
2018-05-04T10:03:05.677Z,101868.83
2018-05-04T10:05:31.483Z,101864.05
2018-05-04T10:07:57.309Z,101866.03
2018-05-04T10:10:23.105Z,101858.45
2018-05-04T10:12:49.186Z,101860.42
2018-05-04T10:15:14.976Z,101859.59
2018-05-04T10:17:40.773Z,101859.53
2018-05-04T10:20:06.557Z,101863.09
2018-05-04T10:22:32.336Z,101862.77
2018-05-04T10:24:58.153Z,101861.91
2018-05-04T10:27:23.932Z,101861.30
2018-05-04T10:29:49.731Z,101860.18
2018-05-04T10:32:15.537Z,101862.01
2018-05-04T10:34:41.356Z,101860.35
2018-05-04T10:37:07.144Z,101860.56
2018-05-04T10:39:32.974Z,101862.95
2018-05-04T10:41:58.779Z,101860.17
2018-05-04T10:44:24.573Z,101858.50
2018-05-04T10:46:50.373Z,101858.70
2018-05-04T10:49:16.144Z,101857.61
2018-05-04T10:51:41.969Z,101861.75
2018-05-04T10:54:07.771Z,101856.91
2018-05-04T10:56:33.597Z,101862.41
2018-05-04T10:58:59.393Z,101863.04
2018-05-04T11:01:25.169Z,101861.50
2018-05-04T11:03:50.974Z,101859.88
2018-05-04T11:06:16.751Z,101855.95
2018-05-04T11:08:42.573Z,101857.03
2018-05-04T11:11:08.373Z,101845.20
2018-05-04T11:13:34.152Z,101842.49
2018-05-04T11:15:59.954Z,101836.73
2018-05-04T11:18:25.751Z,101833.44
2018-05-04T11:20:51.545Z,101834.13
2018-05-04T11:23:17.484Z,101841.01
2018-05-04T11:25:43.281Z,101833.27
2018-05-04T11:28:09.061Z,101835.95
2018-05-04T11:30:34.867Z,101836.06
2018-05-04T11:33:00.662Z,101836.59
2018-05-04T11:35:26.455Z,101835.84
2018-05-04T11:37:52.274Z,101840.21
2018-05-04T11:40:18.097Z,101836.65
2018-05-04T11:42:44.087Z,101842.09
2018-05-04T11:45:09.912Z,101841.08
2018-05-04T11:47:35.680Z,101844.13
2018-05-04T11:50:01.483Z,101846.42
2018-05-04T11:52:27.274Z,101831.75
2018-05-04T11:54:53.064Z,101840.30
2018-05-04T11:57:18.881Z,101839.84
2018-05-04T11:59:44.664Z,101832.20
2018-05-04T12:02:10.469Z,101837.39
2018-05-04T12:04:36.261Z,101837.74
2018-05-04T12:07:02.101Z,101833.02
2018-05-04T12:09:27.938Z,101838.28
2018-05-04T12:11:53.737Z,101835.08
2018-05-04T12:14:19.619Z,101836.28
2018-05-04T12:16:45.703Z,101835.59
2018-05-04T12:19:11.513Z,101838.41
2018-05-04T12:21:37.329Z,101836.42
2018-05-04T12:24:03.114Z,101836.23
2018-05-04T12:26:28.900Z,101832.90
2018-05-04T12:28:54.719Z,101834.61
2018-05-04T12:31:20.528Z,101844.36
2018-05-04T12:33:46.314Z,101838.95
2018-05-04T12:36:12.133Z,101839.61
2018-05-04T12:38:37.994Z,101831.72
2018-05-04T12:41:03.709Z,101835.50
2018-05-04T12:43:29.519Z,101836.84
2018-05-04T12:45:55.318Z,101835.30
2018-05-04T12:48:21.110Z,101844.22
2018-05-04T12:50:46.908Z,101837.30
2018-05-04T12:53:12.697Z,101837.44
2018-05-04T12:55:38.487Z,101846.84
2018-05-04T12:58:04.262Z,101837.30
2018-05-04T13:00:30.361Z,101838.69
2018-05-04T13:02:56.149Z,101831.82
2018-05-04T13:05:21.925Z,101835.77
2018-05-04T13:07:47.717Z,101828.70
2018-05-04T13:10:13.548Z,101824.73
2018-05-04T13:12:39.355Z,101825.61
2018-05-04T13:15:05.170Z,101823.26
2018-05-04T13:17:31.030Z,101827.65
2018-05-04T13:19:56.798Z,101824.11
2018-05-04T13:22:22.593Z,101826.23
2018-05-04T13:24:48.426Z,101829.27
2018-05-04T13:27:14.229Z,101825.92
2018-05-04T13:29:40.038Z,101824.70
2018-05-04T13:32:05.841Z,101829.25
2018-05-04T13:34:31.701Z,101829.23
2018-05-04T13:36:57.480Z,101828.09
2018-05-04T13:39:23.262Z,101829.20
2018-05-04T13:41:49.084Z,101831.66
2018-05-04T13:44:14.889Z,101831.27
2018-05-04T13:46:40.700Z,101842.58
2018-05-04T13:49:06.501Z,101835.81
2018-05-04T13:51:32.306Z,101833.05
2018-05-04T13:53:58.115Z,101824.23
2018-05-04T13:56:23.901Z,101824.60
2018-05-04T13:58:49.686Z,101829.66
2018-05-04T14:01:15.544Z,101821.80
2018-05-04T14:03:41.300Z,101821.20
2018-05-04T14:06:07.125Z,101818.62
2018-05-04T14:08:32.915Z,101827.91
2018-05-04T14:10:58.700Z,101819.34
2018-05-04T14:13:24.517Z,101816.55
2018-05-04T14:15:50.316Z,101823.98
2018-05-04T14:18:16.155Z,101826.34
2018-05-04T14:20:41.962Z,101821.76
2018-05-04T14:23:07.760Z,101822.99
2018-05-04T14:25:33.548Z,101812.34
2018-05-04T14:27:59.380Z,101816.42
2018-05-04T14:30:25.199Z,101814.91
2018-05-04T14:32:51.017Z,101813.92
2018-05-04T14:35:16.830Z,101823.48
2018-05-04T14:37:42.632Z,101826.25
2018-05-04T14:40:08.435Z,101819.73
2018-05-04T14:42:34.214Z,101818.70
2018-05-04T14:45:00.013Z,101815.40
2018-05-04T14:47:25.801Z,101816.20
2018-05-04T14:49:51.594Z,101804.88
2018-05-04T14:52:17.518Z,101813.08
2018-05-04T14:54:43.304Z,101802.34
2018-05-04T14:57:09.089Z,101808.63
2018-05-04T14:59:34.881Z,101805.14
2018-05-04T15:02:00.687Z,101810.13
2018-05-04T15:04:26.494Z,101796.67
2018-05-04T15:06:52.285Z,101800.77
2018-05-04T15:09:18.070Z,101806.27
2018-05-04T15:11:44.028Z,101802.00
2018-05-04T15:14:09.819Z,101800.98
2018-05-04T15:16:35.626Z,101802.84
2018-05-04T15:19:01.785Z,101801.80
2018-05-04T15:21:27.603Z,101801.88
2018-05-04T15:23:53.393Z,101798.05
2018-05-04T15:26:19.188Z,101801.18
2018-05-04T15:28:45.021Z,101796.97
2018-05-04T15:31:10.822Z,101793.73
2018-05-04T15:33:36.605Z,101806.80
2018-05-04T15:36:02.418Z,101800.88
2018-05-04T15:38:28.215Z,101800.69
2018-05-04T15:40:54.009Z,101799.59
2018-05-04T15:43:19.916Z,101785.94
2018-05-04T15:45:45.700Z,101802.83
2018-05-04T15:48:17.549Z,101805.50
2018-05-04T15:50:49.620Z,101808.41
2018-05-04T15:53:15.414Z,101807.39
2018-05-04T15:55:41.210Z,101799.20
2018-05-04T15:58:07.045Z,101797.98
2018-05-04T16:00:32.820Z,101799.61
2018-05-04T16:02:58.608Z,101800.02
2018-05-04T16:05:24.409Z,101799.45
2018-05-04T16:07:50.271Z,101799.36
2018-05-04T16:10:16.021Z,101803.19
2018-05-04T16:12:41.819Z,101799.64
2018-05-04T16:15:07.637Z,101802.41
2018-05-04T16:17:33.422Z,101810.13
2018-05-04T16:19:59.208Z,101806.80
2018-05-04T16:22:25.043Z,101814.67
2018-05-04T16:24:50.838Z,101813.43
2018-05-04T16:27:16.641Z,101808.36
2018-05-04T16:29:42.440Z,101816.28
2018-05-04T16:32:08.225Z,101817.56
2018-05-04T16:34:34.022Z,101819.91
2018-05-04T16:36:59.820Z,101815.08
2018-05-04T16:39:25.650Z,101820.62
2018-05-04T16:41:51.425Z,101828.70
2018-05-04T16:44:17.218Z,101825.98
2018-05-04T16:46:49.207Z,101831.66
2018-05-04T16:49:21.037Z,101834.17
2018-05-04T16:51:46.814Z,101835.02
2018-05-04T16:54:12.644Z,101839.75
2018-05-04T16:56:38.489Z,101840.36
2018-05-04T16:59:04.286Z,101839.34
2018-05-04T17:01:30.088Z,101843.46
2018-05-04T17:03:55.888Z,101841.19
2018-05-04T17:06:21.699Z,101843.23
2018-05-04T17:08:47.499Z,101844.73
2018-05-04T17:11:13.388Z,101846.27
2018-05-04T17:13:39.246Z,101844.36
2018-05-04T17:16:05.070Z,101848.22
2018-05-04T17:18:30.887Z,101848.84
2018-05-04T17:20:56.726Z,101850.01
2018-05-04T17:23:22.525Z,101850.53
2018-05-04T17:25:48.365Z,101855.38
2018-05-04T17:28:14.167Z,101859.16
2018-05-04T17:30:39.978Z,101860.87
2018-05-04T17:33:05.793Z,101857.08
2018-05-04T17:35:31.582Z,101858.78
2018-05-04T17:37:57.393Z,101861.33
2018-05-04T17:40:23.257Z,101865.81
2018-05-04T17:42:49.008Z,101865.59
2018-05-04T17:45:14.898Z,101870.23
2018-05-04T17:47:40.647Z,101869.61
2018-05-04T17:50:06.440Z,101871.50
2018-05-04T17:52:32.221Z,101867.73
2018-05-04T17:54:58.027Z,101873.56
2018-05-04T17:57:23.816Z,101875.33
2018-05-04T17:59:49.639Z,101880.66
2018-05-04T18:02:15.431Z,101882.31
2018-05-04T18:04:41.223Z,101887.81
2018-05-04T18:07:07.302Z,101888.44
2018-05-04T18:09:33.084Z,101895.72
2018-05-04T18:11:58.882Z,101891.63
2018-05-04T18:14:24.678Z,101895.26
2018-05-04T18:16:50.465Z,101899.23
2018-05-04T18:19:16.266Z,101900.84
2018-05-04T18:21:42.442Z,101901.08
2018-05-04T18:24:08.261Z,101899.88
2018-05-04T18:26:34.060Z,101902.97
2018-05-04T18:28:59.850Z,101905.62
2018-05-04T18:31:25.661Z,101901.63
2018-05-04T18:33:51.445Z,101904.41
2018-05-04T18:36:17.252Z,101902.18
2018-05-04T18:38:43.053Z,101905.67
2018-05-04T18:41:08.853Z,101907.44
2018-05-04T18:43:34.637Z,101906.72
2018-05-04T18:46:00.417Z,101913.77
2018-05-04T18:48:26.296Z,101915.74
2018-05-04T18:50:52.044Z,101918.53
2018-05-04T18:53:17.847Z,101919.91
2018-05-04T18:55:43.710Z,101920.30
2018-05-04T18:58:09.515Z,101914.50
2018-05-04T19:00:35.329Z,101913.34
2018-05-04T19:03:07.182Z,101914.63
2018-05-04T19:05:33.039Z,101915.80
2018-05-04T19:07:58.865Z,101922.52
2018-05-04T19:10:24.637Z,101914.20
2018-05-04T19:12:50.433Z,101921.39
2018-05-04T19:15:16.221Z,101928.66
2018-05-04T19:17:42.021Z,101942.83
2018-05-04T19:20:07.810Z,101951.50
2018-05-04T19:22:33.583Z,101956.59
2018-05-04T19:24:59.744Z,101961.20
2018-05-04T19:27:25.550Z,101957.89
2018-05-04T19:29:51.328Z,101967.77
2018-05-04T19:32:17.170Z,101974.48
2018-05-04T19:34:43.070Z,101973.31
2018-05-04T19:37:08.802Z,101970.20
2018-05-04T19:39:34.626Z,101971.62
2018-05-04T19:42:00.703Z,101984.66
2018-05-04T19:44:26.551Z,101983.86
2018-05-04T19:46:52.253Z,101988.58
2018-05-04T19:49:18.205Z,101994.31
2018-05-04T19:51:43.995Z,101993.62
2018-05-04T19:54:09.838Z,102001.84
2018-05-04T19:56:35.587Z,102006.24
2018-05-04T19:59:01.602Z,102009.91
2018-05-04T20:01:27.310Z,102019.35
2018-05-04T20:03:53.087Z,102022.66
2018-05-04T20:06:19.265Z,102027.56
2018-05-04T20:08:45.069Z,102023.50
2018-05-04T20:11:10.914Z,102023.81
2018-05-04T20:13:36.721Z,102027.70
2018-05-04T20:16:02.522Z,102026.18
2018-05-04T20:18:28.311Z,102030.91
2018-05-04T20:20:54.134Z,102033.30
2018-05-04T20:23:19.930Z,102035.33
2018-05-04T20:25:45.712Z,102034.24
2018-05-04T20:28:11.507Z,102027.89
2018-05-04T20:30:37.298Z,102024.62
2018-05-04T20:33:03.124Z,102025.75
2018-05-04T20:35:28.934Z,102026.19
2018-05-04T20:37:54.735Z,102031.48
2018-05-04T20:40:20.710Z,102034.17
2018-05-04T20:42:46.511Z,102030.73
2018-05-04T20:45:12.296Z,102031.27
2018-05-04T20:47:38.324Z,102031.86
2018-05-04T20:50:04.138Z,102035.88
2018-05-04T20:52:29.973Z,102041.16
2018-05-04T20:54:55.814Z,102042.64
2018-05-04T20:57:21.596Z,102045.02
2018-05-04T20:59:47.382Z,102042.70
2018-05-04T21:02:13.173Z,102042.74
2018-05-04T21:04:38.979Z,102047.00
2018-05-04T21:07:04.796Z,102051.55
2018-05-04T21:09:30.611Z,102052.42
2018-05-04T21:11:56.399Z,102057.23
2018-05-04T21:14:22.209Z,102060.28
2018-05-04T21:16:47.988Z,102058.97
2018-05-04T21:19:13.781Z,102058.77
2018-05-04T21:21:39.576Z,102058.70
2018-05-04T21:24:05.392Z,102051.89
2018-05-04T21:26:31.173Z,102054.91
2018-05-04T21:28:56.981Z,102046.60
2018-05-04T21:31:22.951Z,102052.73
2018-05-04T21:33:48.746Z,102061.61
2018-05-04T21:36:14.542Z,102064.58
2018-05-04T21:38:40.349Z,102056.30
2018-05-04T21:41:06.147Z,102060.23
2018-05-04T21:43:31.925Z,102059.59
2018-05-04T21:45:57.737Z,102059.38
2018-05-04T21:48:23.517Z,102058.91
2018-05-04T21:50:49.343Z,102065.48
2018-05-04T21:53:15.125Z,102067.79
2018-05-04T21:55:40.965Z,102060.91
2018-05-04T21:58:06.747Z,102064.29
2018-05-04T22:00:32.526Z,102064.81
2018-05-04T22:02:58.327Z,102063.48
2018-05-04T22:05:24.137Z,102064.41
2018-05-04T22:07:49.934Z,102068.52
2018-05-04T22:10:15.736Z,102070.81
2018-05-04T22:12:41.547Z,102067.75
2018-05-04T22:15:07.354Z,102075.09
2018-05-04T22:17:33.202Z,102073.11
2018-05-04T22:19:59.011Z,102084.86
2018-05-04T22:22:24.791Z,102086.45
2018-05-04T22:24:50.586Z,102087.00
2018-05-04T22:27:16.389Z,102084.88
2018-05-04T22:29:42.207Z,102084.24
2018-05-04T22:32:08.023Z,102082.00
2018-05-04T22:34:33.851Z,102085.23
2018-05-04T22:36:59.629Z,102085.20
2018-05-04T22:39:25.437Z,102079.88
2018-05-04T22:41:51.261Z,102085.10
2018-05-04T22:44:17.054Z,102082.34
2018-05-04T22:46:42.871Z,102080.06
2018-05-04T22:49:08.653Z,102072.89
2018-05-04T22:51:34.435Z,102080.09
2018-05-04T22:54:00.241Z,102077.59
2018-05-04T22:56:26.076Z,102084.66
2018-05-04T22:58:51.840Z,102082.24
2018-05-04T23:01:17.648Z,102085.16
2018-05-04T23:03:43.433Z,102090.42
2018-05-04T23:06:09.258Z,102082.78
2018-05-04T23:08:35.054Z,102078.90
2018-05-04T23:11:00.849Z,102077.83
2018-05-04T23:13:26.666Z,102087.19
2018-05-04T23:15:52.471Z,102085.69
2018-05-04T23:18:18.275Z,102080.06
2018-05-04T23:20:44.163Z,102082.97
2018-05-04T23:23:09.978Z,102082.77
2018-05-04T23:25:35.762Z,102084.84
2018-05-04T23:28:01.540Z,102080.11
2018-05-04T23:30:27.340Z,102078.09
2018-05-04T23:32:53.157Z,102078.41
2018-05-04T23:35:18.939Z,102081.67
2018-05-04T23:37:44.741Z,102082.62
2018-05-04T23:40:10.573Z,102084.17
2018-05-04T23:42:36.380Z,102080.89
2018-05-04T23:45:02.215Z,102077.50
2018-05-04T23:47:28.008Z,102081.89
2018-05-04T23:49:53.799Z,102078.31
2018-05-04T23:52:19.607Z,102079.34
2018-05-04T23:54:45.413Z,102082.56
2018-05-04T23:57:11.193Z,102078.13
2018-05-04T23:59:36.983Z,102084.03
